Weather at Münster Osnabrück Airport

Public forecast

Using degrees Celsius for public forecast. Weather courtesy of forecast.io.

Current aviation weather report (METAR) for Münster Osnabrück Airport

Retrieved 2021/03/02 12:20 UTC (41 minutes ago):

EDDG 021220Z 12004KT 010V180 CAVOK 15/05 Q1031 NOSIG

Aviation forecast (TAF) for Münster Osnabrück Airport

Retrieved 2021/03/02 12:27 UTC (34 minutes ago):

TAF EDDG 021100Z 0212/0312 10003KT CAVOK